createdAt,value
2019-05-23T00:02:13.823Z,9.60
2019-05-23T00:05:03.924Z,9.50
2019-05-23T00:07:35.590Z,9.50
2019-05-23T00:10:08.138Z,9.40
2019-05-23T00:13:10.133Z,9.40
2019-05-23T00:15:44.848Z,9.30
2019-05-23T00:18:20.837Z,9.30
2019-05-23T00:20:49.882Z,9.20
2019-05-23T00:23:21.238Z,9.30
2019-05-23T00:25:52.665Z,9.30
2019-05-23T00:28:23.532Z,9.40
2019-05-23T00:31:01.453Z,9.40
2019-05-23T00:33:34.716Z,9.40
2019-05-23T00:36:05.622Z,9.40
2019-05-23T00:38:37.190Z,9.40
2019-05-23T00:41:08.245Z,9.40
2019-05-23T00:43:41.139Z,9.40
2019-05-23T00:46:12.621Z,9.40
2019-05-23T00:48:44.628Z,9.40
2019-05-23T00:51:16.543Z,9.40
2019-05-23T00:53:47.377Z,9.40
2019-05-23T00:56:18.571Z,9.40
2019-05-23T00:58:50.203Z,9.40
2019-05-23T01:01:22.629Z,9.40
2019-05-23T01:03:54.744Z,9.30
2019-05-23T01:06:25.872Z,9.30
2019-05-23T01:08:57.247Z,9.20
2019-05-23T01:11:28.392Z,9.20
2019-05-23T01:13:59.370Z,9.10
2019-05-23T01:16:31.528Z,9.20
2019-05-23T01:19:02.452Z,9.20
2019-05-23T01:21:52.355Z,9.20
2019-05-23T01:24:42.123Z,9.20
2019-05-23T01:27:14.931Z,9.10
2019-05-23T01:29:49.964Z,9.10
2019-05-23T01:32:25.477Z,9.00
2019-05-23T01:34:56.639Z,9.00
2019-05-23T01:37:27.668Z,9.00
2019-05-23T01:39:58.455Z,9.10
2019-05-23T01:42:29.295Z,9.10
2019-05-23T01:45:02.277Z,9.10
2019-05-23T01:47:33.674Z,9.20
2019-05-23T01:50:05.611Z,9.20
2019-05-23T01:52:36.367Z,9.20
2019-05-23T01:55:08.105Z,9.10
2019-05-23T01:57:40.461Z,9.10
2019-05-23T02:00:13.097Z,9.10
2019-05-23T02:02:44.163Z,9.10
2019-05-23T02:05:15.192Z,9.10
2019-05-23T02:07:45.948Z,9.10
2019-05-23T02:10:17.581Z,9.10
2019-05-23T02:12:48.861Z,9.10
2019-05-23T02:15:20.418Z,9.10
2019-05-23T02:17:52.538Z,9.20
2019-05-23T02:20:24.700Z,9.20
2019-05-23T02:22:55.671Z,9.20
2019-05-23T02:25:26.459Z,9.30
2019-05-23T02:27:57.297Z,9.30
2019-05-23T02:30:34.581Z,9.40
2019-05-23T02:33:02.806Z,9.40
2019-05-23T02:35:33.998Z,9.40
2019-05-23T02:38:22.548Z,9.30
2019-05-23T02:40:59.768Z,9.20
2019-05-23T02:43:32.246Z,9.10
2019-05-23T02:46:07.967Z,9.10
2019-05-23T02:48:43.718Z,9.10
2019-05-23T02:51:23.676Z,9.10
2019-05-23T02:53:56.644Z,9.00
2019-05-23T02:56:31.191Z,9.00
2019-05-23T02:59:30.837Z,8.90
2019-05-23T03:02:45.632Z,8.90
2019-05-23T03:05:18.887Z,8.80
2019-05-23T03:07:50.758Z,8.90
2019-05-23T03:10:24.694Z,8.90
2019-05-23T03:12:58.268Z,9.00
2019-05-23T03:15:30.985Z,9.10
2019-05-23T03:18:04.117Z,9.10
2019-05-23T03:20:35.457Z,9.00
2019-05-23T03:23:15.513Z,9.10
2019-05-23T03:26:36.187Z,9.10
2019-05-23T03:29:08.781Z,9.10
2019-05-23T03:31:58.743Z,9.00
2019-05-23T03:34:31.843Z,9.00
2019-05-23T03:37:03.816Z,8.90
2019-05-23T03:39:34.681Z,8.90
2019-05-23T03:42:05.539Z,8.90
2019-05-23T03:44:36.305Z,8.90
2019-05-23T03:47:09.337Z,9.00
2019-05-23T03:49:40.164Z,9.10
2019-05-23T03:52:11.455Z,9.20
2019-05-23T03:54:43.610Z,9.30
2019-05-23T03:57:15.150Z,9.30
2019-05-23T03:59:47.211Z,9.30
2019-05-23T04:02:20.901Z,9.40
2019-05-23T04:04:52.182Z,9.60
2019-05-23T04:07:23.924Z,9.70
2019-05-23T04:09:54.639Z,9.80
2019-05-23T04:12:25.445Z,9.80
2019-05-23T04:14:56.922Z,9.80
2019-05-23T04:17:28.102Z,9.90
2019-05-23T04:19:58.925Z,9.80
2019-05-23T04:22:29.931Z,9.80
2019-05-23T04:25:02.111Z,9.80
2019-05-23T04:27:33.077Z,9.80
2019-05-23T04:30:03.930Z,9.80
2019-05-23T04:32:34.747Z,9.80
2019-05-23T04:35:06.213Z,9.80
2019-05-23T04:37:36.962Z,9.80
2019-05-23T04:40:10.264Z,9.80
2019-05-23T04:42:41.032Z,9.80
2019-05-23T04:45:12.099Z,9.80
2019-05-23T04:47:43.356Z,9.90
2019-05-23T04:50:16.311Z,10.00
2019-05-23T04:52:47.561Z,10.00
2019-05-23T04:55:19.162Z,10.10
2019-05-23T04:57:49.961Z,10.20
2019-05-23T05:00:20.777Z,10.30
2019-05-23T05:02:51.994Z,10.40
2019-05-23T05:05:23.081Z,10.40
2019-05-23T05:07:53.857Z,10.50
2019-05-23T05:10:26.413Z,10.60
2019-05-23T05:12:57.642Z,10.60
2019-05-23T05:15:28.716Z,10.70
2019-05-23T05:17:59.875Z,10.80
2019-05-23T05:20:30.888Z,10.90
2019-05-23T05:23:01.858Z,11.00
2019-05-23T05:25:32.734Z,11.10
2019-05-23T05:28:03.922Z,11.10
2019-05-23T05:30:34.869Z,11.30
2019-05-23T05:33:05.690Z,11.40
2019-05-23T05:35:36.691Z,11.60
2019-05-23T05:38:07.384Z,11.90
2019-05-23T05:40:38.269Z,12.20
2019-05-23T05:43:09.716Z,12.60
2019-05-23T05:45:40.603Z,12.80
2019-05-23T05:48:11.938Z,12.90
2019-05-23T05:50:42.725Z,12.90
2019-05-23T05:53:13.772Z,13.00
2019-05-23T05:55:44.710Z,13.10
2019-05-23T05:58:15.486Z,13.10
2019-05-23T06:00:58.991Z,13.20
2019-05-23T06:03:29.953Z,13.20
2019-05-23T06:06:18.152Z,13.20
2019-05-23T06:08:51.870Z,13.40
2019-05-23T06:11:22.964Z,13.60
2019-05-23T06:13:54.125Z,13.70
2019-05-23T06:16:25.429Z,13.90
2019-05-23T06:18:56.163Z,14.00
2019-05-23T06:21:28.871Z,14.20
2019-05-23T06:23:59.755Z,14.30
2019-05-23T06:26:31.164Z,14.50
2019-05-23T06:29:01.908Z,14.60
2019-05-23T06:31:33.686Z,14.70
2019-05-23T06:34:04.804Z,14.80
2019-05-23T06:36:35.809Z,14.80
2019-05-23T06:39:09.975Z,15.00
2019-05-23T06:41:40.795Z,15.20
2019-05-23T06:44:12.599Z,15.60
2019-05-23T06:46:43.595Z,15.80
2019-05-23T06:49:14.703Z,16.10
2019-05-23T06:51:45.508Z,16.30
2019-05-23T06:54:16.663Z,16.40
2019-05-23T06:56:47.410Z,16.40
2019-05-23T06:59:18.178Z,16.60
2019-05-23T07:01:49.238Z,16.70
2019-05-23T07:04:20.939Z,16.70
2019-05-23T07:06:51.886Z,16.80
2019-05-23T07:09:23.622Z,16.80
2019-05-23T07:11:57.399Z,16.80
2019-05-23T07:14:28.554Z,16.70
2019-05-23T07:16:59.331Z,16.50
2019-05-23T07:19:30.088Z,16.50
2019-05-23T07:22:00.844Z,16.40
2019-05-23T07:24:32.341Z,16.50
2019-05-23T07:27:03.387Z,16.60
2019-05-23T07:29:35.015Z,16.40
2019-05-23T07:32:06.279Z,16.50
2019-05-23T07:34:37.346Z,16.60
2019-05-23T07:37:08.323Z,16.70
2019-05-23T07:39:39.199Z,16.80
2019-05-23T07:42:10.475Z,16.90
2019-05-23T07:44:48.248Z,17.00
2019-05-23T07:47:15.729Z,17.10
2019-05-23T07:49:46.562Z,17.20
2019-05-23T07:52:17.625Z,17.20
2019-05-23T07:55:00.112Z,17.20
2019-05-23T07:57:31.247Z,17.20
2019-05-23T08:00:03.724Z,17.20
2019-05-23T08:02:37.882Z,17.30
2019-05-23T08:05:11.023Z,17.30
2019-05-23T08:07:41.941Z,17.10
2019-05-23T08:10:13.041Z,17.10
2019-05-23T08:12:44.699Z,17.10
2019-05-23T08:15:17.434Z,17.30
2019-05-23T08:17:48.291Z,17.30
2019-05-23T08:20:19.316Z,17.50
2019-05-23T08:22:50.025Z,17.50
2019-05-23T08:25:21.230Z,17.50
2019-05-23T08:27:52.025Z,17.60
2019-05-23T08:30:23.862Z,17.60
2019-05-23T08:32:54.599Z,17.80
2019-05-23T08:35:25.865Z,18.00
2019-05-23T08:37:56.733Z,18.00
2019-05-23T08:40:29.420Z,18.20
2019-05-23T08:43:00.235Z,18.30
2019-05-23T08:45:31.170Z,18.40
2019-05-23T08:48:02.034Z,18.40
2019-05-23T08:50:33.154Z,18.20
2019-05-23T08:53:04.134Z,18.20
2019-05-23T08:55:35.789Z,18.10
2019-05-23T08:58:06.730Z,17.90
2019-05-23T09:00:40.661Z,17.50
2019-05-23T09:03:12.880Z,17.10
2019-05-23T09:05:44.826Z,16.70
2019-05-23T09:08:17.360Z,16.60
2019-05-23T09:10:50.451Z,16.40
2019-05-23T09:13:21.545Z,16.20
2019-05-23T09:15:53.600Z,16.10
2019-05-23T09:18:24.468Z,16.00
2019-05-23T09:20:55.947Z,15.90
2019-05-23T09:23:27.114Z,16.00
2019-05-23T09:25:59.824Z,15.90
2019-05-23T09:28:30.615Z,15.90
2019-05-23T09:31:01.492Z,16.30
2019-05-23T09:33:32.275Z,16.90
2019-05-23T09:36:03.183Z,17.30
2019-05-23T09:38:34.050Z,17.70
2019-05-23T09:41:04.997Z,17.50
2019-05-23T09:43:35.699Z,17.20
2019-05-23T09:46:06.458Z,17.20
2019-05-23T09:48:37.234Z,17.40
2019-05-23T09:51:08.404Z,17.60
2019-05-23T09:53:39.162Z,17.90
2019-05-23T09:56:09.973Z,18.10
2019-05-23T09:58:40.698Z,18.20
2019-05-23T10:01:11.478Z,18.10
2019-05-23T10:03:42.318Z,17.60
2019-05-23T10:06:13.031Z,17.20
2019-05-23T10:08:43.787Z,17.10
2019-05-23T10:11:14.609Z,17.00
2019-05-23T10:13:45.350Z,17.30
2019-05-23T10:16:16.136Z,17.90
2019-05-23T10:18:46.960Z,18.20
2019-05-23T10:21:17.729Z,18.00
2019-05-23T10:23:48.396Z,17.80
2019-05-23T10:26:19.282Z,17.70
2019-05-23T10:28:53.109Z,17.60
2019-05-23T10:31:24.205Z,17.50
2019-05-23T10:33:54.912Z,17.60
2019-05-23T10:36:25.658Z,17.50
2019-05-23T10:38:56.365Z,17.50
2019-05-23T10:41:27.214Z,17.40
2019-05-23T10:43:57.957Z,17.20
2019-05-23T10:46:29.155Z,17.10
2019-05-23T10:48:59.960Z,17.10
2019-05-23T10:51:30.717Z,17.10
2019-05-23T10:54:01.421Z,17.10
2019-05-23T10:56:32.142Z,17.10
2019-05-23T10:59:02.921Z,17.10
2019-05-23T11:01:34.184Z,17.30
2019-05-23T11:04:05.318Z,17.50
2019-05-23T11:06:36.635Z,17.70
2019-05-23T11:09:09.188Z,17.50
2019-05-23T11:11:40.096Z,17.50
2019-05-23T11:14:11.109Z,17.30
2019-05-23T11:16:42.441Z,17.30
2019-05-23T11:19:13.309Z,17.30
2019-05-23T11:21:44.004Z,17.30
2019-05-23T11:24:15.911Z,17.30
2019-05-23T11:26:46.661Z,17.30
2019-05-23T11:29:17.632Z,17.80
2019-05-23T11:31:48.470Z,18.10
2019-05-23T11:34:19.442Z,18.50
2019-05-23T11:36:50.338Z,19.00
2019-05-23T11:39:22.723Z,19.40
2019-05-23T11:41:53.551Z,20.00
2019-05-23T11:44:24.283Z,20.80
2019-05-23T11:46:55.318Z,21.70
2019-05-23T11:49:26.209Z,22.30
2019-05-23T11:51:57.685Z,22.50
2019-05-23T11:54:29.323Z,21.90
2019-05-23T11:57:00.346Z,21.60
2019-05-23T11:59:31.654Z,21.60
2019-05-23T12:02:20.210Z,21.40
2019-05-23T12:04:52.839Z,22.00
2019-05-23T12:07:27.449Z,22.90
2019-05-23T12:09:58.246Z,23.50
2019-05-23T12:12:29.509Z,23.30
2019-05-23T12:15:00.304Z,23.70
2019-05-23T12:17:32.036Z,23.00
2019-05-23T12:20:02.953Z,22.80
2019-05-23T12:22:34.186Z,22.60
2019-05-23T12:25:21.466Z,22.70
2019-05-23T12:27:39.362Z,22.50
2019-05-23T12:30:13.085Z,22.40
2019-05-23T12:32:43.801Z,22.50
2019-05-23T12:35:14.987Z,22.60
2019-05-23T12:37:45.763Z,22.60
2019-05-23T12:40:17.239Z,22.40
2019-05-23T12:42:47.970Z,22.40
2019-05-23T12:45:20.182Z,22.20
2019-05-23T12:47:56.359Z,22.00
2019-05-23T12:50:30.953Z,22.10
2019-05-23T12:53:01.824Z,22.30
2019-05-23T12:55:32.869Z,22.40
2019-05-23T12:58:03.616Z,22.00
2019-05-23T13:00:56.588Z,21.50
2019-05-23T13:03:29.146Z,21.30
2019-05-23T13:05:59.949Z,20.70
2019-05-23T13:08:30.757Z,20.50
2019-05-23T13:11:01.558Z,20.30
2019-05-23T13:13:32.439Z,20.20
2019-05-23T13:16:03.206Z,20.30
2019-05-23T13:18:33.962Z,20.30
2019-05-23T13:21:05.099Z,20.40
2019-05-23T13:23:36.015Z,21.00
2019-05-23T13:26:06.830Z,21.70
2019-05-23T13:28:37.562Z,22.10
2019-05-23T13:31:08.564Z,22.40
2019-05-23T13:33:39.620Z,22.00
2019-05-23T13:36:11.331Z,21.90
2019-05-23T13:38:42.183Z,21.50
2019-05-23T13:41:13.014Z,21.40
2019-05-23T13:43:44.219Z,21.40
2019-05-23T13:46:15.229Z,21.50
2019-05-23T13:48:46.020Z,21.80
2019-05-23T13:51:16.786Z,22.30
2019-05-23T13:53:47.522Z,23.00
2019-05-23T13:56:19.448Z,23.50
2019-05-23T13:58:50.415Z,23.70
2019-05-23T14:01:21.202Z,23.60
2019-05-23T14:03:52.150Z,23.60
2019-05-23T14:06:23.193Z,24.10
2019-05-23T14:08:53.991Z,24.10
2019-05-23T14:11:43.604Z,23.10
2019-05-23T14:14:32.635Z,22.50
2019-05-23T14:17:33.985Z,22.60
2019-05-23T14:20:23.196Z,22.60
2019-05-23T14:23:24.135Z,23.30
2019-05-23T14:26:13.731Z,23.50
2019-05-23T14:29:02.858Z,23.50
2019-05-23T14:31:59.874Z,22.70
2019-05-23T14:34:48.364Z,21.70
2019-05-23T14:37:42.352Z,22.00
2019-05-23T14:40:31.899Z,22.40
2019-05-23T14:43:25.080Z,22.40
2019-05-23T14:46:17.250Z,22.50
2019-05-23T14:49:16.085Z,22.90
2019-05-23T14:52:33.964Z,23.10
2019-05-23T14:55:22.947Z,22.60
2019-05-23T14:58:11.684Z,22.30
2019-05-23T15:01:00.684Z,22.30
2019-05-23T15:03:49.945Z,22.00
2019-05-23T15:06:39.139Z,21.70
2019-05-23T15:09:27.976Z,21.40
2019-05-23T15:12:17.187Z,21.20
2019-05-23T15:15:06.758Z,21.10
2019-05-23T15:17:55.809Z,21.10
2019-05-23T15:20:45.069Z,21.20
2019-05-23T15:23:33.999Z,21.20
2019-05-23T15:26:23.944Z,21.10
2019-05-23T15:29:12.911Z,20.80
2019-05-23T15:32:03.208Z,20.70
2019-05-23T15:34:52.216Z,20.50
2019-05-23T15:37:41.319Z,20.60
2019-05-23T15:40:30.395Z,20.70
2019-05-23T15:43:19.086Z,20.80
2019-05-23T15:46:07.987Z,20.60
2019-05-23T15:48:57.155Z,20.30
2019-05-23T15:51:55.871Z,20.00
2019-05-23T15:54:52.482Z,20.00
2019-05-23T15:57:48.450Z,20.00
2019-05-23T16:00:56.573Z,20.10
2019-05-23T16:03:50.264Z,19.90
2019-05-23T16:06:40.034Z,19.70
2019-05-23T16:09:31.070Z,19.60
2019-05-23T16:12:20.997Z,19.50
2019-05-23T16:15:10.137Z,19.30
2019-05-23T16:17:59.148Z,19.20
2019-05-23T16:20:49.374Z,19.40
2019-05-23T16:23:38.417Z,19.40
2019-05-23T16:26:27.942Z,19.50
2019-05-23T16:29:18.523Z,19.60
2019-05-23T16:32:07.342Z,19.70
2019-05-23T16:34:56.025Z,19.70
2019-05-23T16:37:45.474Z,19.70
2019-05-23T16:40:34.737Z,19.70
2019-05-23T16:43:24.176Z,19.70
2019-05-23T16:46:13.167Z,19.60
2019-05-23T16:49:02.178Z,19.50
2019-05-23T16:51:51.129Z,19.40
2019-05-23T16:54:43.900Z,19.20
2019-05-23T16:57:42.366Z,19.10
2019-05-23T17:00:49.487Z,19.00
2019-05-23T17:04:06.100Z,18.90
2019-05-23T17:07:00.668Z,18.80
2019-05-23T17:10:09.173Z,18.80
2019-05-23T17:13:22.049Z,18.80
2019-05-23T17:16:42.444Z,18.80
2019-05-23T17:19:39.011Z,18.70
2019-05-23T17:22:51.833Z,18.60
2019-05-23T17:25:52.894Z,18.70
2019-05-23T17:28:45.761Z,18.70
2019-05-23T17:31:36.863Z,18.60
2019-05-23T17:34:25.619Z,18.50
2019-05-23T17:37:16.490Z,18.40
2019-05-23T17:40:05.987Z,18.40
2019-05-23T17:42:54.967Z,18.30
2019-05-23T17:45:43.678Z,18.30
2019-05-23T17:48:32.600Z,18.30
2019-05-23T17:51:21.841Z,18.20
2019-05-23T17:54:11.459Z,18.20
2019-05-23T17:57:00.191Z,18.10
2019-05-23T17:59:48.892Z,17.90
2019-05-23T18:02:37.873Z,17.80
2019-05-23T18:05:27.102Z,17.70
2019-05-23T18:08:15.994Z,17.70
2019-05-23T18:11:05.375Z,17.60
2019-05-23T18:13:54.454Z,17.50
2019-05-23T18:16:44.427Z,17.40
2019-05-23T18:19:34.057Z,17.30
2019-05-23T18:22:23.019Z,17.20
2019-05-23T18:25:13.199Z,17.00
2019-05-23T18:28:01.732Z,16.90
2019-05-23T18:30:55.382Z,16.70
2019-05-23T18:33:44.765Z,16.60
2019-05-23T18:36:34.244Z,16.50
2019-05-23T18:39:24.580Z,16.40
2019-05-23T18:42:13.779Z,16.30
2019-05-23T18:45:04.527Z,16.20
2019-05-23T18:47:54.409Z,16.00
2019-05-23T18:50:43.398Z,16.00
2019-05-23T18:53:32.086Z,15.90
2019-05-23T18:56:21.090Z,15.70
2019-05-23T18:59:11.261Z,15.50
2019-05-23T19:02:00.122Z,15.40
2019-05-23T19:04:51.133Z,15.20
2019-05-23T19:07:41.069Z,15.10
2019-05-23T19:10:29.712Z,15.00
2019-05-23T19:13:19.039Z,15.00
2019-05-23T19:16:07.739Z,15.20
2019-05-23T19:18:56.878Z,15.30
2019-05-23T19:21:46.547Z,15.30
2019-05-23T19:24:36.800Z,15.20
2019-05-23T19:27:26.420Z,15.00
2019-05-23T19:30:15.791Z,14.90
2019-05-23T19:33:04.871Z,14.70
2019-05-23T19:35:53.942Z,14.40
2019-05-23T19:38:42.542Z,14.10
2019-05-23T19:41:37.468Z,14.10
2019-05-23T19:44:22.834Z,14.00
2019-05-23T19:47:11.934Z,14.20
2019-05-23T19:50:00.882Z,14.20
2019-05-23T19:52:49.436Z,14.20
2019-05-23T19:55:40.333Z,14.00
2019-05-23T19:58:29.469Z,13.80
2019-05-23T20:01:20.740Z,13.70
2019-05-23T20:04:09.856Z,13.70
2019-05-23T20:06:59.404Z,13.60
2019-05-23T20:09:48.892Z,13.70
2019-05-23T20:12:38.192Z,13.70
2019-05-23T20:15:28.234Z,13.80
2019-05-23T20:18:16.866Z,13.90
2019-05-23T20:21:07.387Z,13.80
2019-05-23T20:23:56.677Z,13.90
2019-05-23T20:26:45.928Z,13.80
2019-05-23T20:29:35.409Z,13.80
2019-05-23T20:32:24.439Z,13.80
2019-05-23T20:35:14.000Z,13.80
2019-05-23T20:38:02.685Z,13.90
2019-05-23T20:40:51.483Z,13.90
2019-05-23T20:43:40.122Z,13.90
2019-05-23T20:46:28.924Z,13.90
2019-05-23T20:49:18.284Z,13.90
2019-05-23T20:52:07.635Z,13.90
2019-05-23T20:54:56.846Z,14.00
2019-05-23T20:57:46.178Z,14.00
2019-05-23T21:00:44.960Z,14.00
2019-05-23T21:03:36.065Z,14.00
2019-05-23T21:06:25.431Z,13.90
2019-05-23T21:09:15.896Z,13.90
2019-05-23T21:12:04.115Z,13.80
2019-05-23T21:14:56.466Z,13.70
2019-05-23T21:17:45.246Z,13.60
2019-05-23T21:20:34.703Z,13.50
2019-05-23T21:23:24.150Z,13.50
2019-05-23T21:26:13.578Z,13.50
2019-05-23T21:29:03.265Z,13.50
2019-05-23T21:31:52.190Z,13.50
2019-05-23T21:34:41.201Z,13.60
2019-05-23T21:37:29.772Z,13.60
2019-05-23T21:40:32.106Z,13.60
2019-05-23T21:43:20.928Z,13.50
2019-05-23T21:46:10.164Z,13.30
2019-05-23T21:48:59.302Z,13.40
2019-05-23T21:51:51.634Z,13.40
2019-05-23T21:54:38.889Z,13.40
2019-05-23T21:57:28.090Z,13.40
2019-05-23T22:00:26.353Z,13.30
2019-05-23T22:03:15.665Z,13.30
2019-05-23T22:06:05.330Z,13.30
2019-05-23T22:08:55.358Z,13.20
2019-05-23T22:11:45.237Z,13.20
2019-05-23T22:14:34.117Z,13.10
2019-05-23T22:17:23.669Z,13.00
2019-05-23T22:20:13.253Z,13.00
2019-05-23T22:23:02.421Z,13.00
2019-05-23T22:25:51.662Z,12.90
2019-05-23T22:28:41.396Z,13.00
2019-05-23T22:31:36.795Z,13.10
2019-05-23T22:34:43.550Z,13.20
2019-05-23T22:37:33.072Z,13.20
2019-05-23T22:40:21.636Z,13.30
2019-05-23T22:43:20.771Z,13.30
2019-05-23T22:46:01.473Z,13.30
2019-05-23T22:48:50.103Z,13.30
2019-05-23T22:51:39.125Z,13.20
2019-05-23T22:54:28.297Z,13.20
2019-05-23T22:57:17.108Z,13.20
2019-05-23T23:00:06.507Z,13.20
2019-05-23T23:02:55.369Z,13.20
2019-05-23T23:05:43.959Z,13.30
2019-05-23T23:08:32.931Z,13.20
2019-05-23T23:11:21.824Z,13.20
2019-05-23T23:14:10.816Z,13.20
2019-05-23T23:17:00.191Z,13.20
2019-05-23T23:19:48.883Z,13.10
2019-05-23T23:22:37.737Z,13.20
2019-05-23T23:25:27.016Z,13.10
2019-05-23T23:28:16.266Z,13.10
2019-05-23T23:31:04.940Z,13.10
2019-05-23T23:33:53.987Z,13.00
2019-05-23T23:36:43.158Z,12.90
2019-05-23T23:39:31.839Z,12.80
2019-05-23T23:42:21.240Z,12.80
2019-05-23T23:45:27.515Z,12.80
2019-05-23T23:48:34.349Z,12.80
2019-05-23T23:51:41.304Z,12.70
2019-05-23T23:54:48.330Z,12.70
2019-05-23T23:57:55.735Z,12.60
